Time;durP1;ratioP1;P1;durP2;ratioP2;P2;SDS_P1;SDS_P2;PMS_P1;PMS_P2;Temp;Humidity;BMP_temperature;BMP_pressure;BME280_temperature;BME280_humidity;BME280_pressure;Samples;Min_cycle;Max_cycle;Signal;HPM_P1;HPM_P2
2021/01/21 00:03:35;;;;;;;4.90;3.75;;;;;;;7.40;57.41;98488.78;10502162;28;20052;-66
2021/01/21 00:08:36;;;;;;;4.53;3.72;;;;;;;7.34;57.66;98460.25;10505950;27;20045;-66
2021/01/21 00:13:38;;;;;;;6.68;4.00;;;;;;;7.30;57.33;98450.94;10498653;28;20080;-65
2021/01/21 00:18:39;;;;;;;9.38;6.20;;;;;;;7.39;57.35;98465.94;10518998;27;20048;-65
2021/01/21 00:23:40;;;;;;;7.65;4.90;;;;;;;7.32;57.48;98446.31;10515908;28;20052;-65
2021/01/21 00:28:41;;;;;;;8.55;5.18;;;;;;;7.35;58.00;98456.59;10514539;27;20414;-67
2021/01/21 00:33:44;;;;;;;9.57;4.75;;;;;;;7.29;58.43;98453.72;10511693;28;20075;-65
2021/01/21 00:38:45;;;;;;;7.05;4.43;;;;;;;7.33;58.81;98448.00;10501649;28;20055;-69
2021/01/21 00:43:46;;;;;;;5.70;4.20;;;;;;;7.30;58.81;98442.16;10503380;27;20110;-64
2021/01/21 00:48:48;;;;;;;4.90;4.03;;;;;;;7.18;58.97;98418.53;10505472;27;20055;-65
2021/01/21 00:53:49;;;;;;;4.57;3.60;;;;;;;7.29;58.37;98417.50;10501108;27;20046;-65
2021/01/21 00:58:51;;;;;;;5.25;3.45;;;;;;;7.20;57.17;98383.97;10496480;28;20058;-64
2021/01/21 01:03:52;;;;;;;4.68;3.05;;;;;;;7.47;56.08;98401.66;10497056;28;20572;-65
2021/01/21 01:08:53;;;;;;;3.42;2.70;;;;;;;7.69;55.14;98404.88;10501012;28;20055;-64
2021/01/21 01:13:54;;;;;;;5.18;3.10;;;;;;;7.79;55.02;98393.22;10502370;27;20052;-65
2021/01/21 01:18:56;;;;;;;3.97;2.42;;;;;;;7.92;54.22;98407.88;10534722;28;20052;-65
2021/01/21 01:23:57;;;;;;;3.47;2.08;;;;;;;8.13;53.52;98413.69;10497853;28;20094;-65
2021/01/21 01:28:58;;;;;;;3.55;1.77;;;;;;;8.26;52.81;98409.84;10498720;28;20068;-65
2021/01/21 01:34:00;;;;;;;2.80;2.08;;;;;;;8.38;53.10;98397.19;10505793;27;20044;-66
2021/01/21 01:39:02;;;;;;;3.28;2.05;;;;;;;8.47;52.84;98386.47;10512245;27;20098;-65
2021/01/21 01:44:03;;;;;;;3.75;1.77;;;;;;;8.53;53.17;98382.38;10508539;28;20628;-65
2021/01/21 01:49:05;;;;;;;2.90;2.10;;;;;;;8.45;53.28;98361.09;10507071;27;20052;-65
2021/01/21 01:54:11;;;;;;;3.70;2.25;;;;;;;8.43;53.27;98360.41;10504369;27;20064;-65
2021/01/21 01:59:13;;;;;;;3.20;2.45;;;;;;;8.44;53.00;98362.13;10511507;27;20051;-65
2021/01/21 02:04:14;;;;;;;3.95;2.25;;;;;;;8.39;53.41;98351.09;10507350;27;20059;-65
2021/01/21 02:09:16;;;;;;;2.75;2.20;;;;;;;8.47;52.54;98338.75;10501727;28;20059;-65
2021/01/21 02:14:27;;;;;;;2.90;2.10;;;;;;;8.49;52.32;98320.84;10510860;27;20146;-65
2021/01/21 02:20:02;;;;;;;2.38;1.50;;;;;;;8.58;52.23;98315.63;10509978;28;20101;-65
2021/01/21 02:25:03;;;;;;;;;;;;;;;8.70;50.21;98301.06;10511388;28;20135;-65
2021/01/21 02:30:16;;;;;;;2.00;1.20;;;;;;;8.82;47.95;98285.72;10516209;28;20360;-65
2021/01/21 02:35:20;;;;;;;1.40;0.90;;;;;;;9.03;47.13;98277.31;10518391;28;20040;-66
2021/01/21 02:40:22;;;;;;;3.60;1.30;;;;;;;9.17;46.10;98255.47;10526021;27;20096;-66
2021/01/21 02:45:23;;;;;;;2.65;1.20;;;;;;;9.29;45.36;98248.00;10511283;27;20052;-64
2021/01/21 02:50:24;;;;;;;1.48;0.70;;;;;;;9.46;45.64;98259.47;10508758;27;20075;-65
2021/01/21 02:55:45;;;;;;;1.95;1.15;;;;;;;9.55;44.66;98242.53;10509825;27;20041;-64
2021/01/21 03:00:49;;;;;;;3.22;1.10;;;;;;;9.57;44.56;98228.25;10541291;22;20447;-73
2021/01/21 03:05:55;;;;;;;2.35;1.10;;;;;;;9.66;43.83;98216.63;10546873;27;20060;-72
2021/01/21 03:11:13;;;;;;;3.10;0.85;;;;;;;9.70;44.08;98229.41;10555751;27;20512;-71
2021/01/21 03:16:14;;;;;;;1.98;1.10;;;;;;;9.70;44.39;98225.94;10551739;27;20043;-71
2021/01/21 03:21:16;;;;;;;1.08;0.77;;;;;;;9.69;43.78;98232.22;10558003;27;20058;-73
2021/01/21 03:26:18;;;;;;;2.20;0.75;;;;;;;9.72;43.85;98227.41;10548199;27;20842;-73
2021/01/21 03:31:19;;;;;;;2.08;1.00;;;;;;;9.67;44.32;98234.25;10546934;27;22305;-72
2021/01/21 03:36:20;;;;;;;2.80;0.63;;;;;;;9.62;43.68;98232.06;10548412;27;20056;-74
2021/01/21 03:41:21;;;;;;;1.02;0.70;;;;;;;9.63;43.26;98224.94;10541044;27;20293;-73
2021/01/21 03:46:23;;;;;;;2.80;0.93;;;;;;;9.65;42.96;98220.28;10540860;27;20043;-73
2021/01/21 03:51:25;;;;;;;2.35;0.60;;;;;;;9.69;43.45;98200.34;10544671;27;20052;-73
2021/01/21 03:56:26;;;;;;;1.75;1.00;;;;;;;9.68;42.88;98199.53;10555784;27;20050;-73
2021/01/21 04:01:27;;;;;;;2.25;1.05;;;;;;;9.63;43.70;98193.06;10560485;27;20062;-75
2021/01/21 04:06:28;;;;;;;1.52;0.88;;;;;;;9.61;43.26;98187.06;10540981;28;20180;-73
2021/01/21 04:11:30;;;;;;;1.90;0.80;;;;;;;9.76;43.57;98200.50;10547279;27;20051;-73
2021/01/21 04:16:31;;;;;;;2.28;0.88;;;;;;;9.81;43.93;98192.88;10561762;27;20051;-74
2021/01/21 04:21:34;;;;;;;1.35;0.75;;;;;;;9.84;43.18;98209.28;10562746;27;20044;-73
2021/01/21 04:26:35;;;;;;;1.08;0.70;;;;;;;9.98;43.76;98212.25;10538854;27;20063;-73
2021/01/21 04:31:37;;;;;;;3.13;0.85;;;;;;;10.01;44.30;98214.56;10549875;27;20402;-72
2021/01/21 04:36:39;;;;;;;1.42;0.88;;;;;;;10.00;44.07;98215.59;10557802;27;20108;-73
2021/01/21 04:41:40;;;;;;;1.63;1.05;;;;;;;10.02;45.78;98194.97;10569836;27;20047;-74
2021/01/21 04:46:42;;;;;;;0.88;0.60;;;;;;;10.02;45.72;98194.97;10555775;27;20497;-73
2021/01/21 04:51:46;;;;;;;1.60;1.00;;;;;;;10.00;45.39;98191.66;10555934;27;20131;-73
2021/01/21 04:56:48;;;;;;;1.23;1.00;;;;;;;10.07;45.50;98193.47;10541113;27;20056;-72
2021/01/21 05:01:50;;;;;;;2.65;0.70;;;;;;;10.09;45.72;98180.00;10550383;27;20043;-73
2021/01/21 05:06:54;;;;;;;1.92;0.80;;;;;;;10.15;45.99;98183.78;10542523;27;20113;-74
2021/01/21 05:11:55;;;;;;;2.45;1.02;;;;;;;10.16;45.94;98180.97;10554063;27;20063;-74
2021/01/21 05:16:56;;;;;;;0.80;0.60;;;;;;;10.21;45.80;98178.63;10549593;27;20051;-73
2021/01/21 05:22:00;;;;;;;2.13;0.85;;;;;;;10.20;46.09;98181.47;10546127;27;20047;-73
2021/01/21 05:27:01;;;;;;;2.15;0.85;;;;;;;10.21;46.24;98173.31;10558305;27;20043;-73
2021/01/21 05:32:05;;;;;;;2.00;0.98;;;;;;;10.16;46.31;98180.97;10548154;27;20397;-73
2021/01/21 05:37:09;;;;;;;1.77;1.08;;;;;;;10.07;46.76;98187.31;10541825;27;20527;-74
2021/01/21 05:42:12;;;;;;;2.30;1.20;;;;;;;10.08;46.53;98194.28;10560149;27;20043;-73
2021/01/21 05:47:14;;;;;;;2.03;1.08;;;;;;;10.01;46.36;98172.03;10584850;27;20078;-73
2021/01/21 05:52:15;;;;;;;3.05;1.05;;;;;;;9.99;46.35;98184.69;10572585;27;20047;-73
2021/01/21 05:57:17;;;;;;;2.03;0.98;;;;;;;9.96;46.20;98183.19;10556139;27;20048;-74
2021/01/21 06:02:18;;;;;;;2.08;1.55;;;;;;;9.84;46.84;98166.78;10598749;27;20039;-74
2021/01/21 06:07:22;;;;;;;3.85;1.35;;;;;;;9.77;47.10;98176.41;10601013;27;20071;-75
2021/01/21 06:12:26;;;;;;;1.58;1.15;;;;;;;9.80;47.51;98175.25;10559140;27;20044;-75
2021/01/21 06:17:28;;;;;;;4.15;1.50;;;;;;;9.77;47.59;98164.97;10544575;27;20112;-74
2021/01/21 06:22:34;;;;;;;2.53;1.70;;;;;;;9.88;47.96;98178.72;10553651;27;20050;-72
2021/01/21 06:27:38;;;;;;;3.60;1.10;;;;;;;9.88;48.08;98178.72;10537645;27;20052;-75
2021/01/21 06:33:06;;;;;;;2.42;1.17;;;;;;;9.94;48.41;98181.69;10538423;27;20109;-72
2021/01/21 06:38:17;;;;;;;2.28;1.25;;;;;;;9.84;48.46;98164.13;10542173;27;20046;-73
2021/01/21 06:43:28;;;;;;;2.45;1.00;;;;;;;9.87;48.69;98182.38;10542797;27;20063;-74
2021/01/21 06:48:30;;;;;;;3.42;1.10;;;;;;;9.91;48.81;98194.34;10547849;27;20745;-72
2021/01/21 06:53:33;;;;;;;3.70;1.67;;;;;;;9.90;49.31;98182.03;10536038;27;20052;-73
2021/01/21 06:58:48;;;;;;;2.80;1.27;;;;;;;9.91;49.31;98188.19;10539919;27;20094;-73
2021/01/21 07:03:49;;;;;;;4.55;1.17;;;;;;;9.89;49.85;98167.13;10546278;27;20070;-73
2021/01/21 07:09:09;;;;;;;1.58;1.00;;;;;;;9.83;50.97;98178.44;10544177;27;20057;-73
2021/01/21 07:14:11;;;;;;;3.10;1.15;;;;;;;9.87;50.96;98184.22;10551061;27;20497;-72
2021/01/21 07:19:32;;;;;;;;;;;;;;;9.86;51.04;98172.78;10557408;27;20046;-73
2021/01/21 07:24:34;;;;;;;3.00;1.25;;;;;;;9.89;51.41;98174.22;10551965;27;19947;-72
2021/01/21 07:29:37;;;;;;;3.83;2.05;;;;;;;9.93;51.74;98180.06;10562187;27;20040;-72
2021/01/21 07:34:41;;;;;;;2.97;1.35;;;;;;;9.91;51.88;98178.38;10546280;27;21617;-73
2021/01/21 07:39:46;;;;;;;2.00;1.00;;;;;;;9.99;51.80;98200.63;10536968;27;20109;-72
2021/01/21 07:44:55;;;;;;;2.50;1.42;;;;;;;10.06;51.47;98194.47;10529852;28;20044;-72
2021/01/21 07:50:18;;;;;;;2.45;0.95;;;;;;;10.12;51.25;98178.81;10555427;27;20122;-73
2021/01/21 07:55:37;;;;;;;3.05;1.83;;;;;;;10.18;51.78;98181.63;10552015;27;20082;-73
2021/01/21 08:00:38;;;;;;;2.75;1.13;;;;;;;10.22;51.89;98190.94;10553533;27;20418;-72
2021/01/21 08:05:39;;;;;;;2.45;1.27;;;;;;;10.24;52.28;98199.56;10558028;27;20047;-72
2021/01/21 08:10:40;;;;;;;2.40;0.60;;;;;;;10.29;53.11;98183.09;10564463;27;20429;-73
2021/01/21 08:15:44;;;;;;;3.00;1.20;;;;;;;10.30;55.93;98200.72;10542468;27;20101;-73
2021/01/21 08:20:45;;;;;;;2.30;1.00;;;;;;;10.23;57.16;98187.25;10541575;27;20135;-72
2021/01/21 08:25:46;;;;;;;2.28;1.00;;;;;;;10.24;57.73;98188.94;10546029;27;20567;-72
2021/01/21 08:30:52;;;;;;;2.78;0.63;;;;;;;10.17;58.17;98209.22;10588940;27;20066;-75
2021/01/21 08:36:03;;;;;;;2.58;1.02;;;;;;;10.08;59.79;98200.44;10592475;27;20049;-73
2021/01/21 08:41:05;;;;;;;3.85;1.20;;;;;;;10.01;59.88;98193.31;10562863;27;20465;-72
2021/01/21 08:46:23;;;;;;;1.25;0.70;;;;;;;10.03;59.56;98212.59;10588717;27;20039;-72
2021/01/21 08:51:34;;;;;;;3.03;0.60;;;;;;;10.05;59.28;98223.88;10597930;27;20122;-75
2021/01/21 08:56:35;;;;;;;2.25;0.50;;;;;;;9.96;61.07;98223.06;10594239;27;20039;-72
2021/01/21 09:01:43;;;;;;;1.50;0.63;;;;;;;9.88;60.39;98205.31;10525093;22;20132;-67
2021/01/21 09:06:44;;;;;;;2.17;0.98;;;;;;;9.95;59.71;98216.06;10535116;27;20224;-66
2021/01/21 09:11:50;;;;;;;1.45;0.70;;;;;;;10.00;59.64;98213.75;10542878;27;20070;-66
2021/01/21 09:16:55;;;;;;;1.40;0.70;;;;;;;10.09;60.65;98211.91;10548998;27;20051;-63
2021/01/21 09:22:16;;;;;;;1.23;0.80;;;;;;;10.12;60.34;98229.31;10545246;27;20142;-63
2021/01/21 09:27:17;;;;;;;2.75;0.75;;;;;;;10.15;60.86;98216.53;10546616;27;20042;-64
2021/01/21 09:32:20;;;;;;;2.65;0.80;;;;;;;10.35;61.08;98234.78;10556752;27;20506;-65
2021/01/21 09:37:23;;;;;;;1.42;0.60;;;;;;;10.38;61.92;98243.25;10562954;27;20039;-64
2021/01/21 09:42:24;;;;;;;1.92;0.68;;;;;;;10.34;62.64;98239.25;10551813;27;20047;-64
2021/01/21 09:47:26;;;;;;;1.85;0.65;;;;;;;10.42;62.97;98265.84;10544317;27;20230;-64
2021/01/21 09:52:27;;;;;;;1.27;0.68;;;;;;;10.34;65.28;98281.81;10542721;27;20043;-65
2021/01/21 09:57:29;;;;;;;2.22;0.80;;;;;;;10.33;67.07;98311.22;10541797;27;20467;-65
2021/01/21 10:02:30;;;;;;;1.35;1.02;;;;;;;10.13;69.79;98324.88;10546726;27;20105;-66
2021/01/21 10:07:31;;;;;;;2.30;0.70;;;;;;;10.10;71.87;98341.16;10537572;27;20052;-65
2021/01/21 10:12:34;;;;;;;1.48;0.80;;;;;;;9.88;73.54;98364.75;10537294;27;20460;-63
2021/01/21 10:17:35;;;;;;;2.15;0.93;;;;;;;9.78;76.95;98408.44;10548195;27;20100;-65
2021/01/21 10:22:36;;;;;;;4.10;1.75;;;;;;;9.54;78.11;98405.53;10542441;27;20043;-65
2021/01/21 10:27:37;;;;;;;1.70;0.70;;;;;;;9.53;77.96;98424.28;10541352;27;20067;-67
2021/01/21 10:32:39;;;;;;;1.70;0.68;;;;;;;9.50;78.23;98437.91;10541505;27;20048;-64
2021/01/21 10:37:40;;;;;;;1.45;0.60;;;;;;;9.42;78.34;98414.00;10532532;27;20151;-65
2021/01/21 10:42:42;;;;;;;2.88;0.93;;;;;;;9.48;77.84;98416.81;10536070;27;20072;-64
2021/01/21 10:47:43;;;;;;;1.88;0.60;;;;;;;9.55;77.47;98432.94;10544783;27;20129;-63
2021/01/21 10:52:45;;;;;;;1.70;0.77;;;;;;;9.32;77.23;98406.13;10528591;27;20071;-64
2021/01/21 10:57:46;;;;;;;1.50;0.45;;;;;;;9.50;77.05;98422.81;10532697;27;20048;-63
2021/01/21 11:02:47;;;;;;;2.00;0.70;;;;;;;9.49;76.33;98429.09;10536075;27;20144;-64
2021/01/21 11:07:49;;;;;;;1.20;0.60;;;;;;;9.37;75.17;98415.28;10534092;27;20105;-64
2021/01/21 11:12:51;;;;;;;2.92;0.43;;;;;;;9.25;74.90;98394.50;10541767;27;20051;-65
2021/01/21 11:17:52;;;;;;;1.48;0.32;;;;;;;9.28;75.39;98410.13;10548650;27;20100;-64
2021/01/21 11:22:53;;;;;;;1.60;0.60;;;;;;;9.15;75.57;98406.06;10547379;27;20123;-64
2021/01/21 11:27:56;;;;;;;2.92;0.50;;;;;;;9.15;76.23;98419.34;10560590;27;20047;-64
2021/01/21 11:32:59;;;;;;;1.55;0.60;;;;;;;8.76;77.07;98401.25;10547212;27;20071;-64
2021/01/21 11:38:01;;;;;;;1.95;0.50;;;;;;;9.02;77.02;98448.16;10538699;27;20137;-66
2021/01/21 11:43:03;;;;;;;2.15;0.68;;;;;;;8.97;76.00;98434.53;10569205;27;20096;-64
2021/01/21 11:48:05;;;;;;;1.73;0.60;;;;;;;8.99;76.26;98454.63;10549694;27;20056;-64
2021/01/21 11:53:06;;;;;;;1.02;0.22;;;;;;;8.95;75.89;98447.13;10534695;27;20476;-65
2021/01/21 11:58:11;;;;;;;0.57;0.22;;;;;;;8.94;75.58;98434.84;10552100;28;20131;-65
2021/01/21 12:03:13;;;;;;;1.55;0.57;;;;;;;8.94;75.97;98448.94;10544048;27;20039;-65
2021/01/21 12:08:14;;;;;;;1.30;0.22;;;;;;;9.03;75.50;98442.69;10549017;27;20152;-65
2021/01/21 12:13:17;;;;;;;0.50;0.30;;;;;;;9.05;74.15;98421.28;10550636;27;20122;-65
2021/01/21 12:18:18;;;;;;;1.38;0.20;;;;;;;8.99;73.00;98411.31;10548658;27;20105;-64
2021/01/21 12:23:19;;;;;;;1.27;0.32;;;;;;;9.09;72.23;98422.63;10549405;27;20135;-65
2021/01/21 12:28:21;;;;;;;1.67;0.40;;;;;;;9.10;71.98;98434.09;10546533;27;20093;-64
2021/01/21 12:33:22;;;;;;;2.33;0.50;;;;;;;8.91;71.04;98429.84;10551801;27;20052;-64
2021/01/21 12:38:24;;;;;;;0.70;0.20;;;;;;;8.91;69.73;98421.91;10538830;27;20048;-66
2021/01/21 12:43:25;;;;;;;1.02;0.38;;;;;;;8.99;68.52;98413.97;10551703;27;20055;-65
2021/01/21 12:48:26;;;;;;;1.35;0.20;;;;;;;8.97;69.29;98432.69;10546808;27;20499;-64
2021/01/21 12:53:27;;;;;;;0.98;0.20;;;;;;;8.79;67.58;98424.81;10549069;27;20059;-64
2021/01/21 12:58:29;;;;;;;1.38;0.45;;;;;;;8.83;65.34;98423.50;10545796;27;20097;-65
2021/01/21 13:03:30;;;;;;;1.10;0.20;;;;;;;8.78;64.93;98415.19;10547503;27;20071;-64
2021/01/21 13:08:31;;;;;;;1.27;0.10;;;;;;;8.62;63.24;98402.66;10547721;27;20109;-65
2021/01/21 13:13:33;;;;;;;3.00;0.40;;;;;;;8.75;61.89;98394.28;10548900;27;20490;-65
2021/01/21 13:18:34;;;;;;;2.05;0.60;;;;;;;8.91;61.58;98413.94;10547921;27;20075;-65
2021/01/21 13:23:35;;;;;;;1.27;0.30;;;;;;;8.97;61.72;98437.19;10550582;27;20058;-65
2021/01/21 13:28:37;;;;;;;1.52;0.20;;;;;;;8.97;61.83;98414.13;10548962;27;20031;-65
2021/01/21 13:33:38;;;;;;;2.30;0.70;;;;;;;8.94;61.55;98400.34;10543613;27;20065;-65
2021/01/21 13:38:39;;;;;;;0.70;0.20;;;;;;;8.95;61.80;98400.19;10554053;27;20051;-65
2021/01/21 13:43:41;;;;;;;1.40;0.28;;;;;;;8.98;60.64;98415.78;10550504;27;20513;-65
2021/01/21 13:48:42;;;;;;;2.33;0.30;;;;;;;8.94;61.08;98424.22;10563633;27;20055;-68
2021/01/21 13:53:43;;;;;;;1.08;0.60;;;;;;;8.96;61.41;98441.66;10551001;27;20444;-65
2021/01/21 13:58:44;;;;;;;1.35;0.38;;;;;;;8.82;60.10;98429.78;10547177;27;20417;-66
2021/01/21 14:03:45;;;;;;;2.92;0.57;;;;;;;8.79;60.88;98416.84;10539072;27;20051;-66
2021/01/21 14:08:47;;;;;;;2.47;0.88;;;;;;;8.78;61.41;98406.38;10533003;27;20112;-66
2021/01/21 14:13:48;;;;;;;3.42;1.85;;;;;;;8.86;60.59;98403.78;10527042;27;20494;-66
2021/01/21 14:18:49;;;;;;;1.40;0.65;;;;;;;9.00;60.21;98423.59;10537582;27;20119;-65
2021/01/21 14:24:12;;;;;;;2.75;0.55;;;;;;;8.96;62.44;98428.41;10544217;27;20092;-65
2021/01/21 14:29:14;;;;;;;1.95;0.50;;;;;;;9.01;60.22;98425.28;10544266;27;20047;-65
2021/01/21 14:34:15;;;;;;;3.13;0.80;;;;;;;8.95;60.81;98415.28;10543580;27;20586;-65
2021/01/21 14:39:18;;;;;;;2.60;1.23;;;;;;;9.05;60.92;98437.22;10532587;27;20454;-66
2021/01/21 14:44:20;;;;;;;2.45;1.38;;;;;;;9.00;60.78;98434.22;10522902;27;20116;-66
2021/01/21 14:49:21;;;;;;;1.23;0.40;;;;;;;8.99;60.60;98438.69;10523148;27;20052;-67
2021/01/21 14:54:24;;;;;;;2.38;1.30;;;;;;;9.01;60.05;98404.03;10549076;27;20052;-67
2021/01/21 14:59:26;;;;;;;3.90;0.85;;;;;;;8.93;59.84;98414.59;10535151;27;20077;-66
2021/01/21 15:04:27;;;;;;;2.35;1.17;;;;;;;8.88;59.84;98409.75;10543250;27;20072;-66
2021/01/21 15:09:28;;;;;;;3.15;0.65;;;;;;;8.69;59.36;98391.41;10541513;27;20058;-65
2021/01/21 15:14:29;;;;;;;4.03;0.73;;;;;;;8.87;59.79;98409.94;10530436;27;20093;-66
2021/01/21 15:19:31;;;;;;;1.98;0.60;;;;;;;8.65;60.19;98393.56;10537785;27;20056;-65
2021/01/21 15:24:32;;;;;;;4.22;0.80;;;;;;;8.79;60.41;98410.72;10546096;27;20531;-66
2021/01/21 15:29:33;;;;;;;3.75;1.17;;;;;;;8.75;61.26;98415.50;10538353;27;20096;-65
2021/01/21 15:34:34;;;;;;;4.40;0.88;;;;;;;8.63;62.23;98403.47;10540194;27;20096;-66
2021/01/21 15:39:36;;;;;;;3.92;0.90;;;;;;;8.66;63.56;98405.81;10541694;27;20059;-66
2021/01/21 15:44:38;;;;;;;3.05;0.75;;;;;;;8.60;64.66;98387.88;10539938;27;20068;-66
2021/01/21 15:49:39;;;;;;;3.85;1.10;;;;;;;8.49;65.92;98384.50;10550837;27;20051;-65
2021/01/21 15:54:40;;;;;;;2.03;0.60;;;;;;;8.31;66.38;98373.91;10571415;27;20081;-65
2021/01/21 15:59:41;;;;;;;4.75;1.10;;;;;;;8.24;66.66;98374.69;10551150;27;20085;-66
2021/01/21 16:04:43;;;;;;;3.05;0.75;;;;;;;8.18;67.05;98370.00;10563887;27;20047;-66
2021/01/21 16:09:45;;;;;;;4.30;1.00;;;;;;;8.07;67.42;98337.47;10561479;27;20565;-64
2021/01/21 16:14:46;;;;;;;3.78;1.30;;;;;;;8.06;67.16;98327.88;10546307;27;20131;-65
2021/01/21 16:19:47;;;;;;;7.32;1.45;;;;;;;8.23;67.16;98347.34;10556314;27;20128;-65
2021/01/21 16:24:49;;;;;;;3.55;1.10;;;;;;;8.23;67.07;98320.03;10549694;27;20130;-66
2021/01/21 16:29:50;;;;;;;5.30;0.93;;;;;;;8.20;67.08;98315.03;10545882;27;20043;-66
2021/01/21 16:34:52;;;;;;;3.22;1.13;;;;;;;8.25;67.11;98328.66;10556064;27;20822;-65
2021/01/21 16:39:53;;;;;;;4.63;1.05;;;;;;;8.27;67.03;98305.47;10546220;27;20031;-66
2021/01/21 16:44:57;;;;;;;9.57;4.63;;;;;;;8.38;67.93;98313.16;10539217;27;20056;-67
2021/01/21 16:50:00;;;;;;;8.90;4.73;;;;;;;8.41;68.51;98315.50;10540217;27;20056;-66
2021/01/21 16:55:02;;;;;;;5.10;1.70;;;;;;;8.43;68.51;98288.81;10541000;27;20051;-66
2021/01/21 17:00:05;;;;;;;3.92;1.30;;;;;;;8.48;68.43;98303.31;10547234;27;20051;-67
2021/01/21 17:05:08;;;;;;;6.57;1.80;;;;;;;8.43;68.76;98300.25;10555294;27;20044;-66
2021/01/21 17:10:10;;;;;;;4.63;1.13;;;;;;;8.37;68.09;98277.03;10562708;27;20499;-67
2021/01/21 17:15:15;;;;;;;5.75;3.85;;;;;;;8.52;68.31;98277.28;10553732;27;20058;-66
2021/01/21 17:20:20;;;;;;;2.80;0.90;;;;;;;8.60;67.94;98277.34;10558838;27;20048;-66
2021/01/21 17:25:21;;;;;;;5.55;0.98;;;;;;;8.67;67.55;98261.59;10547679;27;20335;-65
2021/01/21 17:30:23;;;;;;;4.13;1.52;;;;;;;8.62;67.37;98246.19;10547789;27;20313;-65
2021/01/21 17:35:24;;;;;;;4.40;1.30;;;;;;;8.68;67.47;98255.31;10537341;27;20039;-66
2021/01/21 17:40:25;;;;;;;4.90;1.50;;;;;;;8.60;67.77;98242.00;10549875;27;20151;-66
2021/01/21 17:45:27;;;;;;;3.90;1.38;;;;;;;8.59;68.21;98240.38;10541143;27;20083;-66
2021/01/21 17:50:28;;;;;;;4.65;1.10;;;;;;;8.56;68.82;98215.00;10546277;27;20112;-67
2021/01/21 17:55:29;;;;;;;3.60;2.30;;;;;;;8.60;68.37;98208.38;10578295;27;20044;-67
2021/01/21 18:00:30;;;;;;;3.47;0.90;;;;;;;8.67;69.02;98209.38;10579090;27;20676;-67
2021/01/21 18:05:32;;;;;;;4.93;1.67;;;;;;;8.65;69.15;98205.25;10562236;27;20074;-67
2021/01/21 18:10:33;;;;;;;6.18;1.45;;;;;;;8.61;69.55;98196.78;10541865;27;20497;-67
2021/01/21 18:15:43;;;;;;;8.38;4.20;;;;;;;8.57;70.16;98168.94;10544251;27;20132;-66
2021/01/21 18:20:50;;;;;;;4.22;1.30;;;;;;;8.57;70.55;98153.03;10559808;27;20100;-66
2021/01/21 18:25:51;;;;;;;3.75;1.73;;;;;;;8.61;71.01;98158.81;10560236;27;20044;-66
2021/01/21 18:30:53;;;;;;;2.60;1.08;;;;;;;8.67;70.93;98169.59;10544566;27;20473;-67
2021/01/21 18:35:54;;;;;;;3.55;1.52;;;;;;;8.54;71.79;98149.84;10536863;27;20040;-67
2021/01/21 18:40:56;;;;;;;3.35;1.25;;;;;;;8.63;72.37;98148.88;10537517;27;20048;-67
2021/01/21 18:45:57;;;;;;;3.60;0.80;;;;;;;8.61;72.79;98142.91;10537405;27;20044;-67
2021/01/21 18:50:58;;;;;;;3.58;1.52;;;;;;;8.65;73.09;98134.47;10535622;27;20051;-69
2021/01/21 18:55:59;;;;;;;1.58;0.88;;;;;;;8.64;73.73;98119.53;10536730;27;20627;-70
2021/01/21 19:01:01;;;;;;;2.72;1.38;;;;;;;8.63;73.97;98099.31;10527759;28;20048;-68
2021/01/21 19:06:03;;;;;;;3.08;0.98;;;;;;;8.61;74.24;98081.91;10543058;27;20054;-67
2021/01/21 19:11:04;;;;;;;2.55;1.23;;;;;;;8.66;74.57;98072.47;10535753;27;20808;-67
2021/01/21 19:16:05;;;;;;;3.47;1.33;;;;;;;8.84;74.71;98080.28;10540052;27;20401;-67
2021/01/21 19:21:07;;;;;;;3.00;1.13;;;;;;;8.92;75.04;98075.97;10532944;27;20055;-67
2021/01/21 19:26:08;;;;;;;2.25;1.27;;;;;;;8.92;74.90;98060.06;10535661;27;20048;-68
2021/01/21 19:31:10;;;;;;;2.58;1.23;;;;;;;8.92;75.30;98044.94;10534606;27;20048;-68
2021/01/21 19:36:12;;;;;;;3.13;1.25;;;;;;;8.88;76.24;98029.53;10537455;27;20059;-67
2021/01/21 19:41:13;;;;;;;2.15;1.20;;;;;;;8.93;76.53;98027.19;10541437;27;20082;-66
2021/01/21 19:46:14;;;;;;;2.38;1.40;;;;;;;8.95;77.01;98014.59;10548702;27;20096;-67
2021/01/21 19:51:16;;;;;;;2.25;1.38;;;;;;;8.92;76.66;97999.03;10543212;27;20528;-64
2021/01/21 19:56:17;;;;;;;2.83;1.23;;;;;;;8.92;77.15;97991.06;10546017;27;20545;-65
2021/01/21 20:01:18;;;;;;;1.90;1.02;;;;;;;8.94;77.14;97986.41;10539781;27;20063;-66
2021/01/21 20:06:20;;;;;;;2.55;1.33;;;;;;;8.98;77.55;97966.50;10571907;27;20057;-68
2021/01/21 20:11:22;;;;;;;1.60;1.17;;;;;;;9.01;77.18;97952.91;10542795;27;20044;-64
2021/01/21 20:16:23;;;;;;;1.48;1.38;;;;;;;9.01;77.02;97931.66;10548743;27;20062;-64
2021/01/21 20:21:24;;;;;;;1.60;1.05;;;;;;;9.42;75.85;97938.66;10537219;27;20039;-65
2021/01/21 20:26:28;;;;;;;1.20;1.10;;;;;;;9.78;74.19;97909.72;10545510;27;20550;-67
2021/01/21 20:31:29;;;;;;;3.33;1.65;;;;;;;9.94;73.84;97905.31;10538097;27;20043;-64
2021/01/21 20:36:31;;;;;;;2.10;1.10;;;;;;;10.10;72.51;97894.56;10529094;27;20170;-66
2021/01/21 20:41:32;;;;;;;2.30;1.45;;;;;;;10.23;72.42;97921.38;10538591;27;20063;-64
2021/01/21 20:46:34;;;;;;;2.20;1.45;;;;;;;10.27;73.44;97888.09;10543370;27;20060;-68
2021/01/21 20:51:35;;;;;;;1.30;0.98;;;;;;;10.29;73.21;97903.06;10542545;27;20100;-65
2021/01/21 20:56:37;;;;;;;1.33;0.85;;;;;;;10.28;73.47;97891.59;10533359;27;20040;-66
2021/01/21 21:01:38;;;;;;;1.38;0.98;;;;;;;9.99;73.57;97831.22;10541480;27;20421;-63
2021/01/21 21:06:40;;;;;;;2.22;1.17;;;;;;;10.26;74.35;97885.63;10544954;27;20126;-65
2021/01/21 21:11:41;;;;;;;1.73;1.02;;;;;;;10.22;74.43;97877.19;10556228;27;20050;-66
2021/01/21 21:16:42;;;;;;;3.42;1.40;;;;;;;10.21;74.73;97864.91;10531714;27;20455;-67
2021/01/21 21:21:44;;;;;;;1.02;0.93;;;;;;;10.14;74.72;97863.16;10552872;27;20566;-65
2021/01/21 21:26:47;;;;;;;1.33;1.00;;;;;;;10.17;75.30;97857.47;10545744;27;20047;-64
2021/01/21 21:31:49;;;;;;;1.33;1.08;;;;;;;10.11;75.59;97850.22;10543932;27;20463;-65
2021/01/21 21:36:50;;;;;;;1.80;1.23;;;;;;;10.05;76.74;97841.13;10549586;27;20047;-65
2021/01/21 21:41:51;;;;;;;2.97;0.90;;;;;;;10.03;76.71;97840.47;10551662;27;20047;-63
2021/01/21 21:46:53;;;;;;;1.27;1.10;;;;;;;10.05;76.95;97849.09;10537454;27;20036;-66
2021/01/21 21:51:54;;;;;;;2.22;1.30;;;;;;;10.08;77.34;97848.72;10541397;27;20048;-66
2021/01/21 21:56:55;;;;;;;1.40;1.15;;;;;;;9.99;76.29;97825.88;10544879;27;20052;-66
2021/01/21 22:01:56;;;;;;;2.67;1.50;;;;;;;10.05;75.90;97831.31;10549656;27;20718;-65
2021/01/21 22:06:58;;;;;;;2.35;1.23;;;;;;;10.09;75.21;97829.94;10541992;27;20051;-65
2021/01/21 22:12:00;;;;;;;1.58;1.30;;;;;;;10.10;74.59;97822.78;10564932;27;20073;-64
2021/01/21 22:17:01;;;;;;;1.50;0.82;;;;;;;10.21;74.18;97848.94;10545727;27;20082;-64
2021/01/21 22:22:03;;;;;;;1.30;1.15;;;;;;;10.21;73.72;97843.63;10543616;27;20092;-65
2021/01/21 22:27:04;;;;;;;3.63;0.95;;;;;;;10.20;73.36;97828.69;10552884;27;20489;-65
2021/01/21 22:32:06;;;;;;;1.80;1.08;;;;;;;10.19;72.69;97808.44;10554072;27;20058;-66
2021/01/21 22:37:08;;;;;;;1.73;1.27;;;;;;;10.29;72.21;97812.66;10546964;27;20050;-65
2021/01/21 22:42:09;;;;;;;3.33;1.20;;;;;;;10.36;71.81;97816.28;10551338;27;20048;-65
2021/01/21 22:47:10;;;;;;;1.50;0.93;;;;;;;10.44;71.17;97800.22;10546964;27;20427;-66
2021/01/21 22:52:12;;;;;;;2.42;1.10;;;;;;;10.47;70.16;97791.06;10552655;27;20417;-66
2021/01/21 22:57:13;;;;;;;2.03;1.05;;;;;;;10.48;70.29;97774.94;10545621;27;20044;-66
2021/01/21 23:02:14;;;;;;;2.05;1.10;;;;;;;10.45;70.17;97785.94;10546057;27;20124;-66
2021/01/21 23:07:16;;;;;;;1.48;0.90;;;;;;;10.48;70.07;97758.97;10552107;27;20063;-65
2021/01/21 23:12:17;;;;;;;1.38;0.80;;;;;;;10.40;70.23;97727.97;10549046;27;20055;-65
2021/01/21 23:17:23;;;;;;;1.23;0.73;;;;;;;10.40;70.16;97724.47;10555430;27;20063;-65
2021/01/21 23:22:24;;;;;;;1.95;1.08;;;;;;;10.42;69.77;97730.47;10557668;27;20052;-64
2021/01/21 23:27:26;;;;;;;1.48;1.10;;;;;;;10.34;69.96;97719.91;10551932;27;20043;-65
2021/01/21 23:32:28;;;;;;;2.55;1.08;;;;;;;10.27;69.84;97725.91;10556712;27;20112;-65
2021/01/21 23:37:29;;;;;;;1.42;0.80;;;;;;;10.20;69.37;97719.69;10556891;27;20057;-65
2021/01/21 23:42:31;;;;;;;1.40;0.77;;;;;;;10.26;68.03;97700.34;10573017;27;20134;-66